ADDS METAR Data INFO
IDs: Format: Raw Decoded Include TAF

Data at: 0839 UTC 21 Oct 2017

KSBO 210815Z AUTO 00000KT 10SM CLR 12/12 A3022 RMK AO2
KSBO 210755Z AUTO 00000KT 10SM CLR 12/12 A3022 RMK AO2
KSBO 210735Z AUTO 00000KT 10SM CLR 12/12 A3022 RMK AO2
KSBO 210715Z AUTO 00000KT 10SM CLR 13/13 A3022 RMK AO2
KSBO 210655Z AUTO 00000KT 10SM CLR 12/12 A3022 RMK AO2
KSBO 210635Z AUTO 00000KT 10SM CLR 13/13 A3023 RMK AO2
KSBO 210615Z AUTO 00000KT 10SM CLR 12/12 A3023 RMK AO2
KSBO 210555Z AUTO 10SM CLR 12/12 A3023 RMK AO2
KSBO 210535Z AUTO 10SM CLR 12/12 A3023 RMK AO2
KSBO 210515Z AUTO 00000KT 10SM CLR 13/11 A3023 RMK AO2
KSBO 210455Z AUTO 00000KT 10SM CLR 13/12 A3023 RMK AO2
KSBO 210435Z AUTO 10SM CLR 13/11 A3023 RMK AO2
KSBO 210415Z AUTO 10SM CLR 13/11 A3023 RMK AO2
KSBO 210355Z AUTO 00000KT 10SM CLR 14/11 A3024 RMK AO2
KSBO 210335Z AUTO 00000KT 10SM CLR 14/11 A3024 RMK AO2
KSBO 210315Z AUTO 00000KT 10SM CLR 14/11 A3023 RMK AO2
KSBO 210255Z AUTO 13003KT 10SM CLR 13/11 A3023 RMK AO2
KSBO 210235Z AUTO 00000KT 10SM CLR 14/11 A3022 RMK AO2
KSBO 210215Z AUTO 00000KT 10SM CLR 14/11 A3021 RMK AO2
KSBO 210155Z AUTO 00000KT 10SM CLR 14/11 A3021 RMK AO2
KSBO 210135Z AUTO 00000KT 10SM CLR 14/11 A3021 RMK AO2
KSBO 210115Z AUTO 10SM CLR 15/11 A3021 RMK AO2
KSBO 210055Z AUTO 10SM CLR 15/12 A3020 RMK AO2
KSBO 210035Z AUTO 10SM CLR 15/11 A3020 RMK AO2
KSBO 210015Z AUTO 10SM CLR 15/11 A3020 RMK AO2
KSBO 202355Z AUTO 10SM CLR 16/11 A3020 RMK AO2
KSBO 202335Z AUTO 10SM CLR 17/12 A3019 RMK AO2
KSBO 202315Z AUTO 10SM CLR 18/12 A3019 RMK AO2
KSBO 202255Z AUTO 00000KT 10SM CLR 20/12 A3019 RMK AO2
KSBO 202235Z AUTO 00000KT 10SM CLR 22/12 A3018 RMK AO2
KSBO 202215Z AUTO 12003KT 10SM CLR 26/07 A3018 RMK AO2
KSBO 202155Z AUTO 12005KT 10SM CLR 26/07 A3018 RMK AO2
KSBO 202135Z AUTO 05003KT 10SM CLR 27/07 A3017 RMK AO2
KSBO 202115Z AUTO 05005KT 10SM CLR 27/07 A3018 RMK AO2
KSBO 202055Z AUTO 12004KT 10SM CLR 27/06 A3019 RMK AO2
KSBO 202035Z AUTO 10005KT 10SM CLR 27/07 A3019 RMK AO2
KSBO 202015Z AUTO 00000KT 10SM CLR 27/07 A3019 RMK AO2
KSBO 201955Z AUTO 00000KT 10SM CLR 27/06 A3020 RMK AO2
KSBO 201935Z AUTO 10SM CLR 27/08 A3019 RMK AO2
KSBO 201915Z AUTO 10SM CLR 27/08 A3019 RMK AO2
KSBO 201855Z AUTO 07003KT 10SM CLR 27/06 A3021 RMK AO2
KSBO 201835Z AUTO 10SM CLR 27/07 A3021 RMK AO2
KSBO 201815Z AUTO 00000KT 10SM CLR 26/08 A3022 RMK AO2
KSBO 201755Z AUTO 10SM CLR 26/07 A3023 RMK AO2
KSBO 201735Z AUTO 04007KT 10SM CLR 26/08 A3024 RMK AO2
KSBO 201715Z AUTO 10SM CLR 25/10 A3025 RMK AO2
KSBO 201655Z AUTO 08003KT 10SM CLR 25/10 A3026 RMK AO2
KSBO 201635Z AUTO 08005KT 10SM CLR 24/11 A3027 RMK AO2
KSBO 201615Z AUTO 01006KT 10SM CLR 23/11 A3028 RMK AO2
KSBO 201555Z AUTO 10SM CLR 23/12 A3028 RMK AO2
KSBO 201535Z AUTO 10SM CLR 22/12 A3029 RMK AO2
KSBO 201515Z AUTO 08004KT 10SM CLR 22/12 A3029 RMK AO2
KSBO 201455Z AUTO 10SM CLR 21/13 A3029 RMK AO2
KSBO 201435Z AUTO 10SM CLR 20/12 A3029 RMK AO2
KSBO 201415Z AUTO 10SM CLR 19/12 A3029 RMK AO2
KSBO 201355Z AUTO 10SM CLR 18/11 A3029 RMK AO2
KSBO 201335Z AUTO 10SM CLR 17/11 A3029 RMK AO2
KSBO 201315Z AUTO 10SM CLR 16/11 A3029 RMK AO2
KSBO 201255Z AUTO 10SM CLR 14/11 A3029 RMK AO2
KSBO 201235Z AUTO 10SM CLR 10/10 A3028 RMK AO2
KSBO 201215Z AUTO 10SM CLR 08/08 A3028 RMK AO2
KSBO 201155Z AUTO 10SM CLR 08/08 A3027 RMK AO2
KSBO 201135Z AUTO 10SM CLR 09/09 A3026 RMK AO2
KSBO 201115Z AUTO 00000KT 10SM CLR 10/10 A3026 RMK AO2
KSBO 201055Z AUTO 10SM CLR 10/10 A3026 RMK AO2
KSBO 201035Z AUTO 10SM CLR 12/10 A3026 RMK AO2
KSBO 201015Z AUTO 10SM CLR 12/10 A3025 RMK AO2
KSBO 200955Z AUTO 10SM CLR 11/11 A3025 RMK AO2
KSBO 200935Z AUTO 00000KT 10SM CLR 08/08 A3024 RMK AO2
KSBO 200915Z AUTO 00000KT 10SM CLR 08/08 A3024 RMK AO2
KSBO 200855Z AUTO 10SM CLR 08/08 A3023 RMK AO2
KSBO 200835Z AUTO 10SM CLR 09/09 A3023 RMK AO2
KSBO 200815Z AUTO 10SM CLR 09/09 A3022 RMK AO2
KSBO 200755Z AUTO 00000KT 10SM CLR 10/10 A3023 RMK AO2
KSBO 200735Z AUTO 10SM CLR 09/09 A3023 RMK AO2
KSBO 200715Z AUTO 00000KT 10SM CLR 10/10 A3023 RMK AO2
KSBO 200655Z AUTO 00000KT 10SM CLR 10/10 A3024 RMK AO2
KSBO 200635Z AUTO 00000KT 10SM CLR 11/11 A3024 RMK AO2
KSBO 200615Z AUTO 00000KT 10SM CLR 11/11 A3024 RMK AO2
KSBO 200555Z AUTO 00000KT 10SM CLR 12/11 A3024 RMK AO2
KSBO 200535Z AUTO 00000KT 10SM CLR 11/11 A3024 RMK AO2
KSBO 200515Z AUTO 10SM CLR 11/11 A3024 RMK AO2
KSBO 200455Z AUTO 10SM CLR 11/10 A3024 RMK AO2
KSBO 200435Z AUTO 07003KT 10SM CLR 12/10 A3025 RMK AO2
KSBO 200415Z AUTO 07004KT 10SM CLR 12/12 A3025 RMK AO2
KSBO 200355Z AUTO 00000KT 10SM CLR 11/11 A3025 RMK AO2
KSBO 200335Z AUTO 00000KT 10SM CLR 12/11 A3025 RMK AO2
KSBO 200315Z AUTO 10SM CLR 12/11 A3025 RMK AO2
KSBO 200255Z AUTO 00000KT 10SM CLR 12/12 A3024 RMK AO2
KSBO 200235Z AUTO 00000KT 10SM CLR 12/12 A3024 RMK AO2
KSBO 200215Z AUTO 00000KT 10SM CLR 13/12 A3024 RMK AO2
KSBO 200155Z AUTO 10SM CLR 13/12 A3023 RMK AO2
KSBO 200135Z AUTO 00000KT 10SM CLR 14/12 A3023 RMK AO2
KSBO 200115Z AUTO 00000KT 10SM CLR 14/12 A3023 RMK AO2
KSBO 200055Z AUTO 10SM CLR 15/12 A3022 RMK AO2
KSBO 200035Z AUTO 10SM CLR 16/12 A3022 RMK AO2
KSBO 200015Z AUTO 10SM CLR 16/13 A3022 RMK AO2
KSBO 192355Z AUTO 10SM CLR 16/13 A3021 RMK AO2
KSBO 192335Z AUTO 00000KT 10SM CLR 17/13 A3021 RMK AO2
KSBO 192315Z AUTO 00000KT 10SM CLR 18/13 A3021 RMK AO2
KSBO 192255Z AUTO 10SM CLR 19/13 A3020 RMK AO2
KSBO 192235Z AUTO 10SM CLR 22/12 A3020 RMK AO2
KSBO 192215Z AUTO 10SM CLR 25/11 A3020 RMK AO2
KSBO 192155Z AUTO 03003KT 10SM CLR 25/09 A3020 RMK AO2
KSBO 192135Z AUTO 10SM CLR 26/09 A3020 RMK AO2
KSBO 192115Z AUTO 00000KT 10SM CLR 26/09 A3020 RMK AO2
KSBO 192055Z AUTO 36003KT 10SM CLR 26/09 A3020 RMK AO2